Time;durP1;ratioP1;P1;durP2;ratioP2;P2;SDS_P1;SDS_P2;PMS_P1;PMS_P2;Temp;Humidity;BMP_temperature;BMP_pressure;BME280_temperature;BME280_humidity;BME280_pressure;Samples;Min_cycle;Max_cycle;Signal;HPM_P1;HPM_P2
2023/08/24 00:01:33;;;;;;;8.77;5.60;;;;;;;26.20;47.80;99263.72;4911886;29;20441;-87
2023/08/24 00:03:59;;;;;;;6.55;5.28;;;;;;;26.30;47.07;99276.06;4892337;29;20035;-87
2023/08/24 00:06:24;;;;;;;8.50;5.53;;;;;;;26.36;47.05;99284.81;4887529;29;20115;-87
2023/08/24 00:08:52;;;;;;;7.20;5.20;;;;;;;26.30;46.47;99267.78;4874343;29;20055;-86
2023/08/24 00:11:18;;;;;;;7.05;5.05;;;;;;;26.45;46.48;99285.31;4870707;29;20024;-87
2023/08/24 00:13:51;;;;;;;9.90;5.25;;;;;;;26.36;46.47;99291.13;4886337;29;20043;-87
2023/08/24 00:16:20;;;;;;;6.72;4.75;;;;;;;26.23;46.48;99278.75;4888014;29;20032;-88
2023/08/24 00:18:46;;;;;;;7.85;4.97;;;;;;;26.15;46.78;99274.31;4901714;29;20056;-87
2023/08/24 00:21:13;;;;;;;9.80;5.55;;;;;;;26.29;46.71;99277.22;4870522;29;20403;-88
2023/08/24 00:23:40;;;;;;;7.45;5.32;;;;;;;26.28;47.26;99272.09;4870640;29;20494;-88
2023/08/24 00:26:05;;;;;;;7.75;5.20;;;;;;;26.30;47.10;99273.31;4908097;29;20498;-87
2023/08/24 00:28:32;;;;;;;8.85;5.78;;;;;;;26.20;47.82;99279.50;4924578;29;20027;-88
2023/08/24 00:30:57;;;;;;;6.88;5.70;;;;;;;26.13;48.32;99282.97;4923288;29;20508;-88
2023/08/24 00:33:23;;;;;;;7.45;5.90;;;;;;;26.06;48.85;99285.63;4924612;29;20032;-88
2023/08/24 00:35:48;;;;;;;10.52;6.53;;;;;;;25.96;49.84;99275.25;4923644;29;20023;-88
2023/08/24 00:38:14;;;;;;;8.38;5.68;;;;;;;25.94;49.73;99289.44;4923994;29;20038;-88
2023/08/24 00:40:42;;;;;;;8.57;6.03;;;;;;;25.91;49.82;99290.16;4936798;28;20026;-88
2023/08/24 00:43:08;;;;;;;8.57;6.20;;;;;;;25.97;49.29;99301.69;4931656;28;20027;-88
2023/08/24 00:45:34;;;;;;;6.57;5.55;;;;;;;25.98;47.69;99306.84;4960117;28;20037;-88
2023/08/24 00:48:00;;;;;;;8.90;5.47;;;;;;;26.08;47.08;99299.84;4946334;28;20030;-87
2023/08/24 00:50:26;;;;;;;8.43;5.68;;;;;;;26.14;47.14;99295.59;4962723;28;20023;-88
2023/08/24 00:52:51;;;;;;;8.35;5.90;;;;;;;26.20;46.39;99299.59;4946552;28;20022;-88
2023/08/24 00:55:17;;;;;;;7.82;5.75;;;;;;;26.16;46.80;99290.47;4960594;28;20022;-88
2023/08/24 00:57:43;;;;;;;6.03;5.30;;;;;;;26.30;46.73;99306.44;4946052;28;20073;-88
2023/08/24 01:00:12;;;;;;;6.13;5.07;;;;;;;26.27;46.38;99285.09;4938084;28;20477;-88
2023/08/24 01:02:38;;;;;;;6.45;5.45;;;;;;;26.27;47.50;99295.34;4917868;28;20026;-87
2023/08/24 01:05:06;;;;;;;8.45;5.93;;;;;;;26.24;48.46;99304.38;4938337;28;20031;-88
2023/08/24 01:07:36;;;;;;;7.15;5.78;;;;;;;26.29;46.87;99293.00;4975109;28;20026;-87
2023/08/24 01:10:03;;;;;;;6.75;5.15;;;;;;;26.23;47.05;99292.56;4942290;28;20030;-87
2023/08/24 01:12:51;;;;;;;9.30;5.85;;;;;;;26.00;50.60;99296.22;4942947;28;20127;-88
2023/08/24 01:15:26;;;;;;;6.20;5.50;;;;;;;25.76;50.82;99297.44;4958235;28;20023;-87
2023/08/24 01:17:52;;;;;;;7.38;5.80;;;;;;;25.79;50.99;99298.63;4928078;28;20073;-87
2023/08/24 01:20:21;;;;;;;7.60;5.55;;;;;;;25.59;51.79;99282.22;4942429;28;20023;-87
2023/08/24 01:22:54;;;;;;;7.80;5.35;;;;;;;25.57;52.86;99270.78;4942750;28;20098;-88
2023/08/24 01:25:59;;;;;;;10.43;6.10;;;;;;;25.53;52.82;99272.69;4927319;28;20046;-88
2023/08/24 01:28:25;;;;;;;7.35;5.65;;;;;;;25.58;52.83;99264.06;4947209;28;20063;-88
2023/08/24 01:30:52;;;;;;;6.65;5.75;;;;;;;25.54;54.62;99257.72;4966847;28;20027;-88
2023/08/24 01:33:18;;;;;;;9.48;6.55;;;;;;;25.53;56.63;99260.88;4986933;28;20101;-87
2023/08/24 01:35:44;;;;;;;8.68;5.88;;;;;;;25.38;55.40;99248.81;4978344;28;20064;-87
2023/08/24 01:38:13;;;;;;;9.00;6.38;;;;;;;25.20;57.93;99245.78;4962103;28;20026;-87
2023/08/24 01:41:05;;;;;;;7.47;6.63;;;;;;;25.04;59.52;99253.38;4978021;28;20100;-87
2023/08/24 01:43:33;;;;;;;7.00;6.05;;;;;;;24.77;60.01;99256.06;4926077;28;20035;-87
2023/08/24 01:45:59;;;;;;;11.18;6.68;;;;;;;24.66;59.71;99255.09;4934536;28;20473;-87
2023/08/24 01:48:25;;;;;;;10.50;6.50;;;;;;;24.46;59.92;99251.56;4945233;28;20030;-87
2023/08/24 01:50:51;;;;;;;7.75;6.53;;;;;;;24.38;60.48;99250.63;4914475;29;20042;-87
2023/08/24 01:53:17;;;;;;;8.90;6.70;;;;;;;24.24;60.38;99245.66;4927036;29;20027;-88
2023/08/24 01:55:45;;;;;;;10.82;8.00;;;;;;;24.11;59.75;99235.94;4927334;29;20039;-87
2023/08/24 01:58:10;;;;;;;15.65;8.63;;;;;;;24.18;59.93;99247.09;4927003;29;20027;-87
2023/08/24 02:00:36;;;;;;;12.45;8.23;;;;;;;24.12;59.26;99240.31;4929887;29;20026;-87
2023/08/24 02:03:02;;;;;;;10.68;8.25;;;;;;;24.18;59.59;99252.59;4958908;28;20022;-87
2023/08/24 02:05:28;;;;;;;12.13;8.68;;;;;;;24.14;59.75;99240.72;4924351;28;20027;-87
2023/08/24 02:07:55;;;;;;;14.38;8.30;;;;;;;24.11;59.60;99231.22;4930321;28;20492;-88
2023/08/24 02:10:21;;;;;;;13.93;8.57;;;;;;;24.26;58.75;99246.09;4961522;28;20042;-89
2023/08/24 02:12:47;;;;;;;10.63;8.02;;;;;;;24.15;58.63;99253.31;4961866;28;20031;-88
2023/08/24 02:15:13;;;;;;;9.65;7.22;;;;;;;24.16;57.68;99241.97;4962465;28;20057;-87
2023/08/24 02:17:39;;;;;;;10.98;7.15;;;;;;;24.36;57.45;99253.75;4930013;28;20030;-88
2023/08/24 02:20:07;;;;;;;11.68;6.82;;;;;;;24.44;56.16;99243.66;4945746;28;20093;-88
2023/08/24 02:22:33;;;;;;;7.78;6.72;;;;;;;24.49;55.85;99237.06;4930811;28;20033;-87
2023/08/24 02:24:58;;;;;;;9.98;6.35;;;;;;;24.51;55.50;99243.00;4925829;28;20042;-87
2023/08/24 02:27:24;;;;;;;8.85;6.18;;;;;;;24.62;55.26;99252.28;4919109;28;20043;-87
2023/08/24 02:29:50;;;;;;;8.18;6.03;;;;;;;24.65;55.20;99237.75;4943868;28;20027;-87
2023/08/24 02:32:16;;;;;;;8.60;6.47;;;;;;;24.68;54.93;99230.75;4938767;28;20034;-87
2023/08/24 02:34:41;;;;;;;11.93;6.03;;;;;;;24.75;54.91;99234.41;4934362;29;20027;-87
2023/08/24 02:37:08;;;;;;;8.85;6.65;;;;;;;24.65;54.72;99220.47;4947297;28;20034;-87
2023/08/24 02:39:34;;;;;;;10.40;6.57;;;;;;;24.78;54.64;99227.38;4948907;28;20559;-86
2023/08/24 02:42:00;;;;;;;8.30;6.10;;;;;;;24.87;54.00;99229.88;4965027;28;20469;-87
2023/08/24 02:44:27;;;;;;;11.30;6.03;;;;;;;24.83;54.05;99232.56;4964671;28;20030;-87
2023/08/24 02:46:55;;;;;;;9.57;6.57;;;;;;;24.68;57.78;99228.00;4964515;28;20038;-86
2023/08/24 02:49:21;;;;;;;8.73;6.75;;;;;;;24.47;58.82;99225.63;4964318;28;20098;-86
2023/08/24 02:51:47;;;;;;;9.73;7.10;;;;;;;24.53;58.81;99230.50;4963721;28;20069;-88
2023/08/24 02:54:13;;;;;;;10.35;7.22;;;;;;;24.44;59.80;99229.88;4979301;28;20034;-88
2023/08/24 02:56:38;;;;;;;9.90;6.90;;;;;;;24.27;59.93;99222.09;4964218;28;20022;-87
2023/08/24 02:59:05;;;;;;;10.15;6.68;;;;;;;24.44;59.02;99229.88;4963619;28;20030;-88
2023/08/24 03:01:31;;;;;;;7.75;6.15;;;;;;;24.64;54.87;99232.66;4964375;28;20100;-88
2023/08/24 03:03:57;;;;;;;6.85;5.90;;;;;;;24.69;55.11;99240.59;4964503;28;20034;-88
2023/08/24 03:06:25;;;;;;;15.20;6.35;;;;;;;24.72;54.59;99226.88;4964587;28;20501;-87
2023/08/24 03:09:08;;;;;;;9.88;6.88;;;;;;;24.67;53.86;99223.63;4930936;29;20482;-87
2023/08/24 03:11:33;;;;;;;9.52;6.35;;;;;;;24.81;54.47;99237.66;4925138;29;20046;-88
2023/08/24 03:13:59;;;;;;;8.43;5.93;;;;;;;24.86;53.79;99231.03;4909138;29;20047;-87
2023/08/24 03:16:25;;;;;;;11.93;6.72;;;;;;;24.86;54.46;99242.06;4909101;29;20398;-87
2023/08/24 03:18:50;;;;;;;9.13;5.82;;;;;;;24.83;53.73;99238.09;4909140;29;20102;-87
2023/08/24 03:21:18;;;;;;;7.72;6.10;;;;;;;24.66;53.57;99222.06;4909563;29;20023;-88
2023/08/24 03:23:44;;;;;;;9.10;6.18;;;;;;;24.89;52.94;99249.59;4890432;29;20044;-88
2023/08/24 03:26:11;;;;;;;12.43;6.63;;;;;;;24.88;52.98;99248.00;4920619;29;20024;-87
2023/08/24 03:28:37;;;;;;;10.95;6.85;;;;;;;24.80;53.42;99242.38;4902466;29;20047;-88
2023/08/24 03:31:06;;;;;;;9.57;6.95;;;;;;;24.76;53.46;99247.03;4906682;29;20027;-89
2023/08/24 03:33:34;;;;;;;14.23;7.20;;;;;;;24.51;56.16;99243.00;4911297;29;20032;-88
2023/08/24 03:36:00;;;;;;;9.45;6.28;;;;;;;24.46;56.67;99257.06;4902942;29;20059;-88
2023/08/24 03:38:26;;;;;;;11.38;6.70;;;;;;;24.38;59.06;99256.94;4932421;29;20032;-87
2023/08/24 03:40:59;;;;;;;10.90;6.93;;;;;;;24.30;59.80;99252.44;4932279;28;20053;-87
2023/08/24 03:43:25;;;;;;;8.05;7.05;;;;;;;24.18;59.66;99258.91;4940682;29;20042;-88
2023/08/24 03:45:51;;;;;;;10.55;7.00;;;;;;;24.19;59.57;99263.22;4941503;29;20035;-88
2023/08/24 03:48:19;;;;;;;13.75;7.35;;;;;;;24.41;59.05;99282.94;4934338;28;20042;-87
2023/08/24 03:50:45;;;;;;;10.65;6.82;;;;;;;24.34;58.54;99267.06;4925903;29;20020;-88
2023/08/24 03:53:12;;;;;;;10.23;7.15;;;;;;;24.51;58.30;99278.78;4954341;29;20042;-88
2023/08/24 03:55:38;;;;;;;12.13;9.48;;;;;;;24.50;57.63;99275.25;4911108;29;20035;-88
2023/08/24 03:58:05;;;;;;;11.95;7.32;;;;;;;24.39;60.09;99272.28;4936807;28;20500;-89
2023/08/24 04:00:31;;;;;;;9.57;7.35;;;;;;;24.42;60.03;99270.75;4945233;28;20026;-88
2023/08/24 04:02:57;;;;;;;11.48;6.93;;;;;;;24.43;59.70;99272.34;4939972;28;20121;-87
2023/08/24 04:05:24;;;;;;;14.50;6.97;;;;;;;24.59;58.73;99275.00;4938047;28;20073;-89
2023/08/24 04:07:50;;;;;;;9.88;7.10;;;;;;;24.31;60.31;99270.53;4937703;28;20022;-88
2023/08/24 04:10:15;;;;;;;10.10;7.40;;;;;;;24.31;59.95;99269.75;4928059;28;20041;-88
2023/08/24 04:12:41;;;;;;;14.10;7.65;;;;;;;24.20;60.10;99281.34;4918973;28;20086;-88
2023/08/24 04:15:09;;;;;;;14.60;10.68;;;;;;;24.14;59.71;99273.75;4935703;28;20033;-86
2023/08/24 04:17:34;;;;;;;12.77;7.35;;;;;;;24.13;60.20;99294.94;4922209;28;20027;-88
2023/08/24 04:20:00;;;;;;;11.20;7.20;;;;;;;23.98;61.45;99282.84;4922075;28;20031;-87
2023/08/24 04:22:27;;;;;;;16.45;8.07;;;;;;;23.92;60.79;99278.78;4953680;28;20042;-88
2023/08/24 04:24:52;;;;;;;18.27;8.52;;;;;;;23.94;61.58;99297.69;4965407;28;20051;-88
2023/08/24 04:27:19;;;;;;;13.50;8.48;;;;;;;23.87;62.73;99303.81;4925979;28;20500;-88
2023/08/24 04:29:45;;;;;;;20.10;8.82;;;;;;;23.77;62.97;99299.69;4934591;28;20125;-89
2023/08/24 04:32:10;;;;;;;16.63;8.65;;;;;;;23.92;62.54;99306.28;4941574;29;20129;-88
2023/08/24 04:34:36;;;;;;;18.75;8.98;;;;;;;23.77;62.57;99299.69;4930070;28;20067;-87
2023/08/24 04:37:02;;;;;;;19.05;8.73;;;;;;;23.79;62.47;99302.88;4925822;28;20122;-87
2023/08/24 04:39:29;;;;;;;13.30;9.40;;;;;;;23.85;62.37;99313.59;4930784;29;20027;-87
2023/08/24 04:41:54;;;;;;;18.40;9.10;;;;;;;23.94;62.40;99300.44;4909600;29;20041;-87
2023/08/24 04:44:21;;;;;;;16.98;8.30;;;;;;;23.94;61.61;99294.94;4909896;29;20034;-87
2023/08/24 04:47:12;;;;;;;13.00;7.43;;;;;;;24.13;60.79;99296.91;4944458;28;20066;-96
2023/08/24 04:52:24;;;;;;;13.63;7.82;;;;;;;24.45;60.10;99292.03;5156438;23;20205;-96
2023/08/24 05:07:15;;;;;;;8.60;7.13;;;;;;;25.15;57.08;99321.28;4975281;28;20208;-96
2023/08/24 05:18:02;;;;;;;11.73;7.25;;;;;;;25.36;56.00;99312.59;5449869;23;20070;-96
2023/08/24 05:28:16;;;;;;;10.68;6.97;;;;;;;25.72;55.17;99304.06;5191288;23;20058;-96
2023/08/24 05:31:19;;;;;;;13.98;8.18;;;;;;;25.93;54.20;99304.38;4956312;28;20118;-96
2023/08/24 05:34:20;;;;;;;9.88;7.63;;;;;;;26.05;53.70;99310.84;4989906;28;20043;-96
2023/08/24 05:50:55;;;;;;;18.63;8.15;;;;;;;26.21;52.75;99323.28;5236403;23;20472;-94
2023/08/24 05:53:24;;;;;;;28.13;23.25;;;;;;;26.16;53.36;99329.13;4915958;29;20039;-95
2023/08/24 05:55:50;;;;;;;9.43;7.43;;;;;;;26.27;53.41;99329.25;4930057;29;20045;-94
2023/08/24 05:58:15;;;;;;;14.77;7.38;;;;;;;26.19;54.15;99313.81;4913989;29;20031;-94
2023/08/24 06:00:45;;;;;;;17.77;7.80;;;;;;;26.22;54.23;99313.03;4917128;29;20106;-95
2023/08/24 06:03:11;;;;;;;24.73;16.52;;;;;;;26.39;54.34;99317.19;4943016;28;20023;-96
2023/08/24 06:05:40;;;;;;;14.63;8.13;;;;;;;26.40;53.62;99316.03;4937444;28;20045;-96
2023/08/24 06:08:05;;;;;;;15.32;8.65;;;;;;;26.67;53.46;99343.59;4938910;28;20065;-96
2023/08/24 06:10:36;;;;;;;12.43;8.32;;;;;;;26.68;53.57;99345.94;4932374;29;20490;-96
2023/08/24 06:20:46;;;;;;;10.07;7.85;;;;;;;26.64;53.36;99347.88;5051464;23;20069;-96
2023/08/24 06:31:02;;;;;;;12.50;8.02;;;;;;;26.87;52.22;99346.94;4990203;28;20050;-96
2023/08/24 06:33:38;;;;;;;15.18;7.53;;;;;;;26.99;52.01;99335.59;4947625;28;20061;-96
2023/08/24 06:36:11;;;;;;;10.73;8.32;;;;;;;27.08;52.25;99333.34;4981508;28;20091;-96
2023/08/24 06:42:34;;;;;;;;;;;;;;;;;;;;;
2023/08/24 06:48:39;;;;;;;13.98;7.90;;;;;;;28.19;49.61;99361.84;4900270;29;20092;-96
2023/08/24 06:51:19;;;;;;;10.68;7.60;;;;;;;28.10;48.65;99335.66;4880833;29;20049;-95
2023/08/24 06:53:48;;;;;;;9.73;6.85;;;;;;;28.16;50.23;99339.66;4927337;23;21286;-96
2023/08/24 06:56:27;;;;;;;10.80;6.50;;;;;;;28.15;49.71;99341.63;5017070;23;20053;-96
2023/08/24 06:58:53;;;;;;;12.65;8.25;;;;;;;28.31;49.88;99344.09;4924792;28;20043;-93
2023/08/24 07:01:19;;;;;;;9.38;7.38;;;;;;;28.39;49.56;99347.69;4945819;29;20042;-96
2023/08/24 07:03:44;;;;;;;10.88;6.85;;;;;;;28.36;49.08;99342.91;4947649;28;20109;-95
2023/08/24 07:06:29;;;;;;;16.25;6.80;;;;;;;28.52;48.80;99342.63;4949977;28;20023;-95
2023/08/24 07:09:18;;;;;;;10.43;7.07;;;;;;;28.74;48.33;99341.50;4965904;28;20474;-93
2023/08/24 07:11:51;;;;;;;8.93;6.70;;;;;;;28.87;48.70;99357.75;4909103;29;20044;-95
2023/08/24 07:14:21;;;;;;;12.40;7.82;;;;;;;28.90;48.00;99340.34;4903977;29;20028;-96
2023/08/24 07:44:28;;;;;;;9.38;5.35;;;;;;;30.02;41.68;99316.94;4972698;23;20047;-90
2023/08/24 07:46:53;;;;;;;12.10;7.00;;;;;;;30.18;41.46;99319.25;4945709;28;20190;-90
2023/08/24 07:49:19;;;;;;;13.27;7.70;;;;;;;30.24;41.35;99314.88;4928511;28;20070;-89
2023/08/24 07:51:47;;;;;;;8.07;6.00;;;;;;;30.36;39.44;99324.75;4930503;28;20030;-88
2023/08/24 07:54:14;;;;;;;8.93;5.72;;;;;;;30.52;38.24;99319.50;4924700;28;20049;-88
2023/08/24 07:56:43;;;;;;;8.77;5.57;;;;;;;30.69;37.24;99330.94;4913697;28;20509;-89
2023/08/24 07:59:08;;;;;;;16.55;7.63;;;;;;;30.80;37.17;99326.13;4924749;28;20047;-86
2023/08/24 08:01:44;;;;;;;8.98;5.53;;;;;;;30.89;37.33;99326.47;4926149;28;20022;-87
2023/08/24 08:04:10;;;;;;;10.15;6.38;;;;;;;30.98;36.94;99318.50;4945217;28;20007;-89
2023/08/24 08:06:35;;;;;;;7.88;5.78;;;;;;;31.02;37.14;99310.91;4930116;28;20070;-88
2023/08/24 08:09:01;;;;;;;11.98;5.97;;;;;;;31.15;37.00;99310.38;4930579;28;20043;-89
2023/08/24 08:11:30;;;;;;;9.15;7.05;;;;;;;31.28;36.88;99314.25;4931950;29;20539;-93
2023/08/24 08:13:56;;;;;;;8.50;6.05;;;;;;;31.19;36.92;99317.53;4926386;28;20027;-91
2023/08/24 08:16:21;;;;;;;12.07;6.82;;;;;;;31.25;37.31;99311.50;4927702;28;20035;-90
2023/08/24 08:18:50;;;;;;;6.93;5.90;;;;;;;31.31;36.98;99301.53;4925729;28;20019;-89
2023/08/24 08:21:19;;;;;;;8.02;5.95;;;;;;;31.50;37.23;99319.66;4931811;28;20490;-90
2023/08/24 08:23:54;;;;;;;10.50;5.95;;;;;;;31.53;36.33;99332.78;4939644;28;20093;-89
2023/08/24 08:26:32;;;;;;;8.68;5.93;;;;;;;31.42;36.88;99308.56;4927699;28;20093;-92
2023/08/24 08:29:01;;;;;;;7.57;5.82;;;;;;;31.49;36.85;99312.53;4930048;28;20086;-90
2023/08/24 08:31:27;;;;;;;8.10;6.47;;;;;;;31.61;36.52;99310.00;4928294;28;20035;-88
2023/08/24 08:34:04;;;;;;;11.00;6.35;;;;;;;31.69;36.74;99316.31;4926007;28;20037;-87
2023/08/24 08:36:32;;;;;;;9.10;7.28;;;;;;;31.76;37.01;99307.88;4921561;28;20493;-90
2023/08/24 08:39:04;;;;;;;8.10;5.85;;;;;;;31.74;36.57;99293.56;4918345;29;20038;-88
2023/08/24 08:41:36;;;;;;;7.90;6.97;;;;;;;31.82;36.58;99295.06;4919055;28;20010;-89
2023/08/24 08:44:04;;;;;;;11.48;7.82;;;;;;;31.94;36.13;99313.25;4933419;28;20137;-88
2023/08/24 08:47:19;;;;;;;8.35;6.20;;;;;;;31.64;36.07;99280.56;4938197;28;20042;-89
2023/08/24 08:49:49;;;;;;;7.40;5.88;;;;;;;31.60;37.38;99280.59;4942671;28;20034;-88
2023/08/24 09:28:25;;;;;;;8.57;5.82;;;;;;;32.72;33.91;99254.91;5527565;23;20097;-96
2023/08/24 09:30:57;;;;;;;8.93;5.70;;;;;;;32.83;34.08;99254.75;4917152;29;20084;-95
2023/08/24 09:45:59;;;;;;;11.13;6.35;;;;;;;33.27;33.83;99241.69;5203234;23;20039;-95
2023/08/24 10:32:20;;;;;;;;;;;;;;;;;;;;;
2023/08/24 10:38:48;;;;;;;8.57;6.15;;;;;;;33.76;32.32;99186.09;4913674;29;20036;-94
2023/08/24 10:41:53;;;;;;;8.02;6.55;;;;;;;33.85;31.60;99179.16;4836818;29;20041;-91
2023/08/24 10:44:51;;;;;;;13.07;7.97;;;;;;;33.87;30.99;99183.13;4818277;29;20441;-92
2023/08/24 10:48:05;;;;;;;11.02;7.90;;;;;;;33.96;31.35;99176.94;4861674;29;20041;-91
2023/08/24 10:50:53;;;;;;;7.72;5.70;;;;;;;33.81;29.95;99146.50;4844856;29;20038;-90
2023/08/24 10:53:50;;;;;;;7.30;6.55;;;;;;;34.10;30.19;99167.47;4821832;29;20074;-90
2023/08/24 10:56:30;;;;;;;10.25;7.10;;;;;;;34.03;29.51;99143.22;4818116;29;20046;-92
2023/08/24 10:59:22;;;;;;;9.20;5.87;;;;;;;34.13;30.58;99142.22;4835580;29;20053;-89
2023/08/24 11:01:53;;;;;;;9.48;5.80;;;;;;;34.19;30.10;99142.50;4830625;29;20101;-90
2023/08/24 11:04:28;;;;;;;9.15;5.80;;;;;;;34.26;29.72;99131.16;4857876;29;20060;-88
2023/08/24 11:07:07;;;;;;;14.50;5.90;;;;;;;34.24;28.62;99133.59;4815668;29;20102;-88
2023/08/24 11:09:47;;;;;;;7.97;6.13;;;;;;;34.44;28.80;99129.94;4831141;29;20540;-88
2023/08/24 11:12:13;;;;;;;8.25;5.95;;;;;;;34.51;28.41;99126.97;4843060;29;20067;-88
2023/08/24 11:14:51;;;;;;;7.22;5.78;;;;;;;34.42;28.56;99124.78;4888252;29;20059;-86
2023/08/24 11:17:29;;;;;;;10.40;5.68;;;;;;;34.44;28.74;99122.34;4904664;29;20047;-87
2023/08/24 11:19:57;;;;;;;9.63;6.32;;;;;;;34.33;28.71;99127.41;4891872;29;20046;-88
2023/08/24 11:22:26;;;;;;;7.80;6.88;;;;;;;34.13;29.40;99108.69;4892712;29;20020;-88
2023/08/24 11:25:02;;;;;;;8.15;6.50;;;;;;;34.35;29.09;99113.78;4884527;29;20028;-89
2023/08/24 11:27:31;;;;;;;7.35;6.55;;;;;;;34.41;28.76;99112.03;4894951;29;20481;-90
2023/08/24 11:30:05;;;;;;;8.40;6.45;;;;;;;34.19;28.82;99092.19;4886024;29;20063;-93
2023/08/24 11:32:33;;;;;;;7.93;6.55;;;;;;;34.44;29.37;99107.56;4887564;29;20131;-91
2023/08/24 11:34:58;;;;;;;7.53;6.57;;;;;;;34.40;28.44;99100.06;4888151;29;20034;-89
2023/08/24 11:37:24;;;;;;;7.40;6.70;;;;;;;34.49;28.09;99099.47;4889044;29;20036;-89
2023/08/24 11:40:16;;;;;;;9.05;7.13;;;;;;;34.63;28.62;99085.06;4890515;29;20028;-92
2023/08/24 11:42:59;;;;;;;12.10;6.75;;;;;;;34.86;27.74;99102.91;4895134;29;20036;-88
2023/08/24 11:45:30;;;;;;;7.80;6.43;;;;;;;34.74;28.24;99079.25;4909710;29;20027;-89
2023/08/24 11:48:00;;;;;;;8.25;6.07;;;;;;;34.81;27.56;99084.66;4896840;29;20020;-87
2023/08/24 11:50:31;;;;;;;7.93;6.20;;;;;;;34.87;28.04;99087.69;4901004;29;20449;-89
2023/08/24 11:53:07;;;;;;;;;;;;;;;;;;;;;
2023/08/24 11:55:32;;;;;;;7.43;6.50;;;;;;;34.62;27.72;99077.16;4922126;29;20005;-88
2023/08/24 11:58:02;;;;;;;8.25;6.70;;;;;;;34.49;27.94;99067.88;4893724;29;20063;-89
2023/08/24 12:01:25;;;;;;;7.15;6.25;;;;;;;34.59;28.54;99078.00;4882609;29;20054;-88
2023/08/24 12:04:43;;;;;;;9.00;6.55;;;;;;;34.45;29.20;99061.59;4914702;29;20119;-88
2023/08/24 12:07:12;;;;;;;8.23;7.00;;;;;;;34.28;28.90;99046.88;4901437;29;20028;-88
2023/08/24 12:09:46;;;;;;;11.05;6.75;;;;;;;34.18;28.76;99041.13;4884447;29;20056;-87
2023/08/24 12:12:24;;;;;;;7.30;6.60;;;;;;;34.21;28.98;99045.81;4885459;29;20422;-92
2023/08/24 12:14:58;;;;;;;9.85;6.40;;;;;;;34.33;29.50;99054.75;4886314;29;20035;-87
2023/08/24 12:17:26;;;;;;;10.05;7.47;;;;;;;34.36;29.20;99053.84;4884780;29;20031;-89
2023/08/24 12:20:05;;;;;;;9.27;7.57;;;;;;;34.19;29.21;99045.47;4907163;29;20062;-89
2023/08/24 12:22:37;;;;;;;10.38;7.18;;;;;;;34.16;29.17;99042.75;4906176;29;20115;-91
2023/08/24 12:25:06;;;;;;;9.55;7.20;;;;;;;34.10;29.83;99038.91;4901465;29;20060;-90
2023/08/24 12:27:39;;;;;;;9.60;7.32;;;;;;;34.18;30.55;99043.09;4903033;29;20044;-90
2023/08/24 12:30:26;;;;;;;10.93;6.82;;;;;;;34.28;31.19;99066.44;4891338;29;20020;-89
2023/08/24 12:32:55;;;;;;;8.98;6.90;;;;;;;34.09;31.31;99043.69;4895344;29;20064;-88
2023/08/24 12:35:24;;;;;;;14.48;7.35;;;;;;;34.16;31.95;99046.34;4909177;29;20028;-89
2023/08/24 12:38:22;;;;;;;8.60;7.10;;;;;;;34.25;31.96;99045.75;4886636;29;20024;-90
2023/08/24 12:40:53;;;;;;;10.07;7.45;;;;;;;34.33;31.90;99035.16;4903715;29;20032;-90
2023/08/24 12:43:19;;;;;;;10.65;6.78;;;;;;;34.54;31.42;99048.56;4885671;29;20024;-90
2023/08/24 12:45:45;;;;;;;11.23;7.57;;;;;;;34.61;31.54;99025.22;4882605;29;20054;-90
2023/08/24 12:49:03;;;;;;;9.45;6.50;;;;;;;34.64;30.41;99013.19;4879906;29;20126;-91
2023/08/24 12:51:29;;;;;;;11.30;8.30;;;;;;;34.85;30.34;99027.81;4923598;29;20490;-90
2023/08/24 12:54:05;;;;;;;14.13;7.93;;;;;;;34.94;30.04;99031.53;4898856;29;20047;-94
2023/08/24 12:57:09;;;;;;;11.38;5.75;;;;;;;35.02;29.53;99018.91;4912783;29;20091;-92
2023/08/24 12:59:46;;;;;;;8.65;5.68;;;;;;;35.22;29.02;99034.78;4917718;29;20042;-94
2023/08/24 13:02:11;;;;;;;11.68;6.05;;;;;;;35.30;28.78;99027.75;4887016;29;20036;-93
2023/08/24 13:04:46;;;;;;;10.63;7.10;;;;;;;35.44;29.36;99018.09;4886020;29;20509;-91
2023/08/24 13:07:12;;;;;;;6.55;5.55;;;;;;;35.48;28.98;99018.00;4880641;29;20032;-90
2023/08/24 13:09:37;;;;;;;8.20;6.30;;;;;;;35.63;28.68;99033.13;4885989;29;20032;-89
2023/08/24 13:12:03;;;;;;;8.10;6.13;;;;;;;35.54;28.91;99039.38;4894205;29;20033;-88
2023/08/24 13:14:29;;;;;;;9.35;6.07;;;;;;;35.46;28.90;99034.47;4909429;29;20031;-95
2023/08/24 13:16:54;;;;;;;8.32;6.50;;;;;;;35.50;28.77;99024.72;4887294;29;20059;-94
2023/08/24 13:19:20;;;;;;;14.18;6.88;;;;;;;35.78;28.73;99039.09;4895304;29;20058;-94
2023/08/24 13:21:52;;;;;;;11.98;7.13;;;;;;;35.83;29.07;99032.94;4896779;29;20035;-95
2023/08/24 13:24:18;;;;;;;6.95;5.88;;;;;;;35.89;28.13;99036.72;4896294;29;20071;-95
2023/08/24 13:26:49;;;;;;;7.68;6.20;;;;;;;35.93;28.12;99031.03;4901037;29;20051;-94
2023/08/24 13:29:15;;;;;;;11.18;6.30;;;;;;;35.97;28.36;99028.88;4918240;29;20063;-95
2023/08/24 14:04:22;;;;;;;8.30;5.20;;;;;;;35.83;29.71;99032.16;4932325;28;20036;-95
2023/08/24 14:07:30;;;;;;;13.77;8.75;;;;;;;36.12;29.19;99051.63;4905127;29;20104;-96
2023/08/24 14:10:12;;;;;;;10.23;5.95;;;;;;;36.08;29.13;99043.31;4838746;29;20045;-94
2023/08/24 14:12:56;;;;;;;10.57;5.97;;;;;;;36.11;29.34;99039.63;4849384;29;20033;-96
2023/08/24 14:23:05;;;;;;;7.25;5.05;;;;;;;35.03;30.79;99044.88;4955707;28;20058;-96
2023/08/24 14:25:34;;;;;;;7.07;4.85;;;;;;;35.15;29.90;99046.16;4926629;28;20031;-96
2023/08/24 14:28:04;;;;;;;8.20;5.40;;;;;;;34.65;31.34;99050.34;4909348;29;20087;-96
2023/08/24 14:30:36;;;;;;;7.85;5.13;;;;;;;34.25;31.58;99081.28;4902569;29;20039;-94
2023/08/24 14:33:01;;;;;;;22.77;8.77;;;;;;;34.03;40.24;99129.25;4918484;29;20543;-95
2023/08/24 14:35:27;;;;;;;13.45;6.47;;;;;;;33.51;40.26;99164.25;4899958;29;20023;-96
2023/08/24 14:40:56;;;;;;;14.40;8.35;;;;;;;31.68;47.24;99231.19;4938537;29;20055;-95
2023/08/24 14:43:22;;;;;;;16.02;9.10;;;;;;;30.98;51.08;99250.94;4915058;29;20044;-96
2023/08/24 14:45:48;;;;;;;17.77;9.60;;;;;;;29.96;52.93;99263.78;4917110;29;20022;-96
2023/08/24 14:48:14;;;;;;;17.63;10.00;;;;;;;28.68;55.64;99257.19;4909490;29;20132;-96
2023/08/24 14:50:39;;;;;;;14.48;10.00;;;;;;;27.54;62.72;99260.25;4895291;29;20103;-94
2023/08/24 14:53:06;;;;;;;16.05;11.13;;;;;;;26.88;66.19;99274.72;4878419;29;20059;-94
2023/08/24 14:55:32;;;;;;;16.02;10.68;;;;;;;26.79;65.60;99266.75;4895158;29;20039;-96
2023/08/24 14:57:59;;;;;;;15.73;10.82;;;;;;;26.42;69.08;99234.41;4894484;29;20032;-95
2023/08/24 15:00:25;;;;;;;14.32;9.30;;;;;;;26.25;65.31;99248.81;4912080;29;20020;-96
2023/08/24 15:02:50;;;;;;;14.45;10.45;;;;;;;26.15;70.64;99258.56;4916756;29;20095;-96
2023/08/24 15:05:22;;;;;;;11.38;8.80;;;;;;;25.66;66.83;99234.66;4935053;29;20035;-96
2023/08/24 15:08:00;;;;;;;;;;;;;;;;;;;;;
2023/08/24 15:10:26;;;;;;;13.77;10.80;;;;;;;25.25;72.86;99217.91;4938929;29;20091;-96
2023/08/24 15:12:52;;;;;;;16.40;10.57;;;;;;;25.20;75.30;99227.28;4936602;29;20027;-96
2023/08/24 15:15:18;;;;;;;16.85;11.25;;;;;;;25.23;73.19;99256.06;4918580;29;20011;-96
2023/08/24 15:17:47;;;;;;;12.75;8.60;;;;;;;24.97;68.12;99245.78;4930031;29;20023;-94
2023/08/24 15:20:13;;;;;;;16.67;10.25;;;;;;;24.94;71.42;99241.00;4912365;29;20510;-93
2023/08/24 15:22:39;;;;;;;13.30;8.52;;;;;;;24.78;72.71;99238.41;4915446;29;20063;-94
2023/08/24 15:25:13;;;;;;;14.45;9.75;;;;;;;24.74;73.05;99226.53;4909070;29;20051;-93
2023/08/24 15:27:39;;;;;;;9.50;6.25;;;;;;;24.75;66.87;99230.88;4883930;29;20087;-94
2023/08/24 15:30:05;;;;;;;12.52;6.60;;;;;;;24.47;71.44;99236.66;4887451;29;20036;-92
2023/08/24 15:32:32;;;;;;;9.55;6.35;;;;;;;24.61;66.97;99231.41;4898432;29;20030;-91
2023/08/24 15:34:58;;;;;;;11.55;6.75;;;;;;;24.34;70.31;99267.06;4908222;29;20063;-91
2023/08/24 15:37:24;;;;;;;8.70;5.93;;;;;;;24.28;68.02;99254.78;4899636;29;20506;-91
2023/08/24 15:39:50;;;;;;;11.38;6.65;;;;;;;24.40;69.30;99270.31;4893852;29;20491;-90
2023/08/24 15:42:16;;;;;;;10.48;6.75;;;;;;;24.23;68.88;99279.81;4906741;29;20032;-89
2023/08/24 15:44:41;;;;;;;6.95;6.25;;;;;;;24.27;68.53;99266.13;4875201;29;20471;-92
2023/08/24 15:47:07;;;;;;;9.70;6.60;;;;;;;24.36;66.61;99277.69;4890334;29;20479;-91